sensor_id;sensor_type;location;lat;lon;timestamp;pressure;altitude;pressure_sealevel;temperature;humidity
71907;BME280;59781;52.090;5.030;2023-05-17T00:02:09;102513.88;;;8.49;100.00
71907;BME280;59781;52.090;5.030;2023-05-17T00:04:35;102513.19;;;8.58;100.00
71907;BME280;59781;52.090;5.030;2023-05-17T00:07:00;102505.91;;;8.36;100.00
71907;BME280;59781;52.090;5.030;2023-05-17T00:09:26;102498.16;;;8.31;100.00
71907;BME280;59781;52.090;5.030;2023-05-17T00:11:52;102508.34;;;8.39;100.00
71907;BME280;59781;52.090;5.030;2023-05-17T00:14:17;102505.69;;;8.50;100.00
71907;BME280;59781;52.090;5.030;2023-05-17T00:16:43;102498.78;;;8.35;100.00
71907;BME280;59781;52.090;5.030;2023-05-17T00:19:09;102495.81;;;8.27;100.00
71907;BME280;59781;52.090;5.030;2023-05-17T00:21:35;102510.84;;;8.29;100.00
71907;BME280;59781;52.090;5.030;2023-05-17T00:24:01;102504.38;;;8.32;100.00
71907;BME280;59781;52.090;5.030;2023-05-17T00:26:26;102501.03;;;8.17;100.00
71907;BME280;59781;52.090;5.030;2023-05-17T00:28:52;102504.94;;;8.24;100.00
71907;BME280;59781;52.090;5.030;2023-05-17T00:31:18;102507.00;;;8.21;100.00
71907;BME280;59781;52.090;5.030;2023-05-17T00:33:43;102506.78;;;8.24;100.00
71907;BME280;59781;52.090;5.030;2023-05-17T00:36:10;102507.56;;;8.13;100.00
71907;BME280;59781;52.090;5.030;2023-05-17T00:38:36;102498.50;;;8.03;100.00
71907;BME280;59781;52.090;5.030;2023-05-17T00:41:02;102505.88;;;8.12;100.00
71907;BME280;59781;52.090;5.030;2023-05-17T00:43:27;102499.94;;;8.20;100.00
71907;BME280;59781;52.090;5.030;2023-05-17T00:45:53;102504.72;;;8.27;100.00
71907;BME280;59781;52.090;5.030;2023-05-17T00:48:19;102507.91;;;8.32;100.00
71907;BME280;59781;52.090;5.030;2023-05-17T00:50:51;102513.06;;;8.36;100.00
71907;BME280;59781;52.090;5.030;2023-05-17T00:53:19;102510.66;;;8.44;100.00
71907;BME280;59781;52.090;5.030;2023-05-17T00:55:45;102509.47;;;8.48;100.00
71907;BME280;59781;52.090;5.030;2023-05-17T00:58:12;102509.38;;;8.49;100.00
71907;BME280;59781;52.090;5.030;2023-05-17T01:00:39;102508.03;;;8.55;100.00
71907;BME280;59781;52.090;5.030;2023-05-17T01:03:05;102508.81;;;8.68;100.00
71907;BME280;59781;52.090;5.030;2023-05-17T01:05:31;102511.38;;;8.70;100.00
71907;BME280;59781;52.090;5.030;2023-05-17T01:07:57;102491.91;;;8.55;100.00
71907;BME280;59781;52.090;5.030;2023-05-17T01:10:34;102498.91;;;8.57;100.00
71907;BME280;59781;52.090;5.030;2023-05-17T01:13:11;102505.84;;;8.60;100.00
71907;BME280;59781;52.090;5.030;2023-05-17T01:15:49;102507.84;;;8.80;100.00
71907;BME280;59781;52.090;5.030;2023-05-17T01:18:38;102504.44;;;8.78;100.00
71907;BME280;59781;52.090;5.030;2023-05-17T01:21:29;102497.00;;;8.93;100.00
71907;BME280;59781;52.090;5.030;2023-05-17T01:24:24;102498.09;;;8.90;100.00
71907;BME280;59781;52.090;5.030;2023-05-17T01:26:55;102487.28;;;9.14;100.00
71907;BME280;59781;52.090;5.030;2023-05-17T01:29:27;102487.63;;;9.10;100.00
71907;BME280;59781;52.090;5.030;2023-05-17T01:31:56;102483.09;;;9.10;100.00
71907;BME280;59781;52.090;5.030;2023-05-17T01:34:25;102489.44;;;8.98;100.00
71907;BME280;59781;52.090;5.030;2023-05-17T01:36:52;102483.59;;;9.27;100.00
71907;BME280;59781;52.090;5.030;2023-05-17T01:39:18;102488.38;;;9.45;100.00
71907;BME280;59781;52.090;5.030;2023-05-17T01:41:54;102483.59;;;9.38;100.00
71907;BME280;59781;52.090;5.030;2023-05-17T01:47:27;102493.63;;;9.36;100.00
71907;BME280;59781;52.090;5.030;2023-05-17T01:50:08;102493.50;;;9.37;100.00
71907;BME280;59781;52.090;5.030;2023-05-17T01:52:49;102485.66;;;9.68;100.00
71907;BME280;59781;52.090;5.030;2023-05-17T01:58:09;102490.94;;;9.47;100.00
71907;BME280;59781;52.090;5.030;2023-05-17T02:00:38;102485.53;;;9.58;100.00
71907;BME280;59781;52.090;5.030;2023-05-17T02:03:12;102474.88;;;9.68;100.00
71907;BME280;59781;52.090;5.030;2023-05-17T02:05:41;102478.91;;;9.62;100.00
71907;BME280;59781;52.090;5.030;2023-05-17T02:08:07;102485.78;;;9.66;100.00
71907;BME280;59781;52.090;5.030;2023-05-17T02:10:33;102485.53;;;9.58;100.00
71907;BME280;59781;52.090;5.030;2023-05-17T02:12:59;102488.13;;;9.48;100.00
71907;BME280;59781;52.090;5.030;2023-05-17T02:15:24;102487.16;;;9.38;100.00
71907;BME280;59781;52.090;5.030;2023-05-17T02:17:50;102486.28;;;9.27;100.00
71907;BME280;59781;52.090;5.030;2023-05-17T02:20:16;102485.66;;;9.23;100.00
71907;BME280;59781;52.090;5.030;2023-05-17T02:22:42;102490.09;;;9.35;100.00
71907;BME280;59781;52.090;5.030;2023-05-17T02:25:08;102483.97;;;9.22;100.00
71907;BME280;59781;52.090;5.030;2023-05-17T02:27:34;102491.41;;;9.18;100.00
71907;BME280;59781;52.090;5.030;2023-05-17T02:30:00;102489.59;;;9.19;100.00
71907;BME280;59781;52.090;5.030;2023-05-17T02:32:27;102496.81;;;9.18;100.00
71907;BME280;59781;52.090;5.030;2023-05-17T02:34:54;102488.84;;;9.28;100.00
71907;BME280;59781;52.090;5.030;2023-05-17T02:37:22;102498.13;;;9.13;100.00
71907;BME280;59781;52.090;5.030;2023-05-17T02:39:47;102493.00;;;9.21;100.00
71907;BME280;59781;52.090;5.030;2023-05-17T02:42:13;102490.81;;;9.15;100.00
71907;BME280;59781;52.090;5.030;2023-05-17T02:44:39;102497.41;;;9.22;100.00
71907;BME280;59781;52.090;5.030;2023-05-17T02:47:05;102492.66;;;9.26;100.00
71907;BME280;59781;52.090;5.030;2023-05-17T02:49:31;102497.41;;;9.22;100.00
71907;BME280;59781;52.090;5.030;2023-05-17T02:51:56;102498.47;;;9.53;100.00
71907;BME280;59781;52.090;5.030;2023-05-17T02:54:22;102503.16;;;9.29;100.00
71907;BME280;59781;52.090;5.030;2023-05-17T02:56:48;102504.75;;;9.20;100.00
71907;BME280;59781;52.090;5.030;2023-05-17T02:59:15;102511.09;;;9.08;100.00
71907;BME280;59781;52.090;5.030;2023-05-17T03:01:41;102522.19;;;9.03;100.00
71907;BME280;59781;52.090;5.030;2023-05-17T03:04:07;102512.31;;;9.15;100.00
71907;BME280;59781;52.090;5.030;2023-05-17T03:06:33;102517.91;;;9.12;100.00
71907;BME280;59781;52.090;5.030;2023-05-17T03:09:01;102515.88;;;9.27;100.00
71907;BME280;59781;52.090;5.030;2023-05-17T03:11:28;102520.38;;;9.15;100.00
71907;BME280;59781;52.090;5.030;2023-05-17T03:13:55;102519.50;;;9.03;100.00
71907;BME280;59781;52.090;5.030;2023-05-17T03:16:25;102524.13;;;8.90;100.00
71907;BME280;59781;52.090;5.030;2023-05-17T03:18:51;102521.81;;;8.97;100.00
71907;BME280;59781;52.090;5.030;2023-05-17T03:21:17;102522.41;;;8.89;100.00
71907;BME280;59781;52.090;5.030;2023-05-17T03:23:42;102525.59;;;8.94;100.00
71907;BME280;59781;52.090;5.030;2023-05-17T03:26:08;102532.94;;;9.03;100.00
71907;BME280;59781;52.090;5.030;2023-05-17T03:28:41;102533.44;;;9.19;100.00
71907;BME280;59781;52.090;5.030;2023-05-17T03:31:07;102535.03;;;9.22;100.00
71907;BME280;59781;52.090;5.030;2023-05-17T03:33:33;102535.28;;;9.30;100.00
71907;BME280;59781;52.090;5.030;2023-05-17T03:35:59;102544.72;;;9.36;100.00
71907;BME280;59781;52.090;5.030;2023-05-17T03:38:25;102537.97;;;9.41;100.00
71907;BME280;59781;52.090;5.030;2023-05-17T03:40:51;102545.91;;;9.43;100.00
71907;BME280;59781;52.090;5.030;2023-05-17T03:43:19;102541.78;;;9.28;100.00
71907;BME280;59781;52.090;5.030;2023-05-17T03:45:45;102545.19;;;9.18;100.00
71907;BME280;59781;52.090;5.030;2023-05-17T03:48:11;102549.59;;;9.19;100.00
71907;BME280;59781;52.090;5.030;2023-05-17T03:50:38;102549.06;;;9.03;100.00
71907;BME280;59781;52.090;5.030;2023-05-17T03:53:06;102558.22;;;9.01;100.00
71907;BME280;59781;52.090;5.030;2023-05-17T03:55:32;102548.31;;;8.90;100.00
71907;BME280;59781;52.090;5.030;2023-05-17T03:57:58;102562.28;;;8.71;100.00
71907;BME280;59781;52.090;5.030;2023-05-17T04:00:24;102559.59;;;8.71;100.00
71907;BME280;59781;52.090;5.030;2023-05-17T04:02:54;102566.69;;;8.72;100.00
71907;BME280;59781;52.090;5.030;2023-05-17T04:05:21;102567.16;;;8.66;100.00
71907;BME280;59781;52.090;5.030;2023-05-17T04:07:47;102564.44;;;9.01;100.00
71907;BME280;59781;52.090;5.030;2023-05-17T04:10:13;102571.41;;;9.04;100.00
71907;BME280;59781;52.090;5.030;2023-05-17T04:12:39;102567.63;;;8.95;100.00
71907;BME280;59781;52.090;5.030;2023-05-17T04:15:05;102570.16;;;8.85;100.00
71907;BME280;59781;52.090;5.030;2023-05-17T04:17:32;102570.31;;;8.60;100.00
71907;BME280;59781;52.090;5.030;2023-05-17T04:19:58;102578.06;;;8.52;100.00
71907;BME280;59781;52.090;5.030;2023-05-17T04:22:23;102580.44;;;8.56;100.00
71907;BME280;59781;52.090;5.030;2023-05-17T04:24:50;102592.16;;;8.55;100.00
71907;BME280;59781;52.090;5.030;2023-05-17T04:27:17;102596.88;;;8.52;100.00
71907;BME280;59781;52.090;5.030;2023-05-17T04:29:43;102595.72;;;8.43;100.00
71907;BME280;59781;52.090;5.030;2023-05-17T04:32:09;102596.22;;;8.37;100.00
71907;BME280;59781;52.090;5.030;2023-05-17T04:34:35;102597.44;;;8.44;100.00
71907;BME280;59781;52.090;5.030;2023-05-17T04:37:02;102599.91;;;8.47;100.00
71907;BME280;59781;52.090;5.030;2023-05-17T04:39:28;102606.75;;;8.51;100.00
71907;BME280;59781;52.090;5.030;2023-05-17T04:41:54;102609.00;;;8.57;100.00
71907;BME280;59781;52.090;5.030;2023-05-17T04:44:20;102620.41;;;8.72;100.00
71907;BME280;59781;52.090;5.030;2023-05-17T04:46:45;102617.88;;;8.82;100.00
71907;BME280;59781;52.090;5.030;2023-05-17T04:49:12;102617.88;;;9.06;100.00
71907;BME280;59781;52.090;5.030;2023-05-17T04:51:39;102614.19;;;9.07;100.00
71907;BME280;59781;52.090;5.030;2023-05-17T04:54:06;102619.22;;;9.23;100.00
71907;BME280;59781;52.090;5.030;2023-05-17T04:56:34;102624.28;;;9.38;100.00
71907;BME280;59781;52.090;5.030;2023-05-17T04:59:07;102627.09;;;9.48;100.00
71907;BME280;59781;52.090;5.030;2023-05-17T05:01:33;102623.69;;;9.57;100.00
71907;BME280;59781;52.090;5.030;2023-05-17T05:04:00;102627.50;;;9.66;100.00
71907;BME280;59781;52.090;5.030;2023-05-17T05:06:33;102623.34;;;9.95;100.00
71907;BME280;59781;52.090;5.030;2023-05-17T05:09:00;102623.94;;;10.32;100.00
71907;BME280;59781;52.090;5.030;2023-05-17T05:11:26;102633.06;;;10.41;100.00
71907;BME280;59781;52.090;5.030;2023-05-17T05:13:52;102635.00;;;11.35;100.00
71907;BME280;59781;52.090;5.030;2023-05-17T05:16:18;102630.28;;;11.58;100.00
71907;BME280;59781;52.090;5.030;2023-05-17T05:18:44;102630.66;;;11.74;100.00
71907;BME280;59781;52.090;5.030;2023-05-17T05:21:10;102629.66;;;11.96;100.00
71907;BME280;59781;52.090;5.030;2023-05-17T05:23:37;102642.25;;;12.26;100.00
71907;BME280;59781;52.090;5.030;2023-05-17T05:26:03;102646.38;;;12.21;100.00
71907;BME280;59781;52.090;5.030;2023-05-17T05:28:29;102644.81;;;12.28;100.00
71907;BME280;59781;52.090;5.030;2023-05-17T05:30:57;102641.19;;;12.87;100.00
71907;BME280;59781;52.090;5.030;2023-05-17T05:33:25;102645.16;;;13.51;100.00
71907;BME280;59781;52.090;5.030;2023-05-17T05:35:51;102650.75;;;13.39;100.00
71907;BME280;59781;52.090;5.030;2023-05-17T05:38:17;102651.53;;;14.06;100.00
71907;BME280;59781;52.090;5.030;2023-05-17T05:40:45;102654.03;;;13.33;100.00
71907;BME280;59781;52.090;5.030;2023-05-17T05:43:13;102651.56;;;13.59;100.00
71907;BME280;59781;52.090;5.030;2023-05-17T05:45:40;102654.75;;;13.82;100.00
71907;BME280;59781;52.090;5.030;2023-05-17T05:48:13;102659.78;;;13.77;100.00
71907;BME280;59781;52.090;5.030;2023-05-17T05:50:43;102659.31;;;14.19;100.00
71907;BME280;59781;52.090;5.030;2023-05-17T05:53:12;102668.53;;;13.98;100.00
71907;BME280;59781;52.090;5.030;2023-05-17T05:55:41;102667.38;;;14.28;100.00
71907;BME280;59781;52.090;5.030;2023-05-17T05:58:08;102674.81;;;14.26;100.00
71907;BME280;59781;52.090;5.030;2023-05-17T06:00:34;102670.41;;;14.16;100.00
71907;BME280;59781;52.090;5.030;2023-05-17T06:03:01;102678.56;;;14.16;100.00
71907;BME280;59781;52.090;5.030;2023-05-17T06:05:27;102679.44;;;14.16;100.00
71907;BME280;59781;52.090;5.030;2023-05-17T06:07:52;102678.88;;;15.03;100.00
71907;BME280;59781;52.090;5.030;2023-05-17T06:10:18;102671.66;;;14.94;100.00
71907;BME280;59781;52.090;5.030;2023-05-17T06:12:44;102680.69;;;14.95;100.00
71907;BME280;59781;52.090;5.030;2023-05-17T06:15:10;102670.38;;;15.16;100.00
71907;BME280;59781;52.090;5.030;2023-05-17T06:17:36;102672.03;;;14.63;100.00
71907;BME280;59781;52.090;5.030;2023-05-17T06:20:02;102670.34;;;14.80;100.00
71907;BME280;59781;52.090;5.030;2023-05-17T06:22:28;102681.38;;;13.96;100.00
71907;BME280;59781;52.090;5.030;2023-05-17T06:24:53;102679.63;;;14.32;100.00
71907;BME280;59781;52.090;5.030;2023-05-17T06:27:19;102680.66;;;14.59;100.00
71907;BME280;59781;52.090;5.030;2023-05-17T06:29:45;102682.16;;;15.25;100.00
71907;BME280;59781;52.090;5.030;2023-05-17T06:32:10;102682.44;;;15.91;100.00
71907;BME280;59781;52.090;5.030;2023-05-17T06:34:36;102688.28;;;15.70;99.33
71907;BME280;59781;52.090;5.030;2023-05-17T06:37:04;102695.72;;;15.68;100.00
71907;BME280;59781;52.090;5.030;2023-05-17T06:39:30;102685.78;;;17.12;99.38
71907;BME280;59781;52.090;5.030;2023-05-17T06:41:56;102687.28;;;17.63;95.51
71907;BME280;59781;52.090;5.030;2023-05-17T06:44:21;102695.78;;;16.45;96.36
71907;BME280;59781;52.090;5.030;2023-05-17T06:46:47;102689.75;;;16.67;100.00
71907;BME280;59781;52.090;5.030;2023-05-17T06:49:13;102693.41;;;16.92;95.71
71907;BME280;59781;52.090;5.030;2023-05-17T06:51:38;102698.00;;;16.91;89.42
71907;BME280;59781;52.090;5.030;2023-05-17T06:54:04;102700.41;;;16.52;90.60
71907;BME280;59781;52.090;5.030;2023-05-17T06:56:30;102697.13;;;16.32;89.08
71907;BME280;59781;52.090;5.030;2023-05-17T06:58:56;102697.97;;;16.41;89.85
71907;BME280;59781;52.090;5.030;2023-05-17T07:01:21;102712.31;;;15.83;96.90
71907;BME280;59781;52.090;5.030;2023-05-17T07:03:47;102704.00;;;16.61;93.30
71907;BME280;59781;52.090;5.030;2023-05-17T07:06:13;102705.16;;;17.09;87.21
71907;BME280;59781;52.090;5.030;2023-05-17T07:08:39;102726.34;;;15.35;93.80
71907;BME280;59781;52.090;5.030;2023-05-17T07:11:04;102727.59;;;14.22;100.00
71907;BME280;59781;52.090;5.030;2023-05-17T07:13:30;102727.44;;;13.87;100.00
71907;BME280;59781;52.090;5.030;2023-05-17T07:15:56;102726.66;;;13.47;100.00
71907;BME280;59781;52.090;5.030;2023-05-17T07:18:22;102734.31;;;13.04;100.00
71907;BME280;59781;52.090;5.030;2023-05-17T07:20:48;102737.38;;;14.33;100.00
71907;BME280;59781;52.090;5.030;2023-05-17T07:23:13;102726.63;;;15.49;98.49
71907;BME280;59781;52.090;5.030;2023-05-17T07:25:39;102735.06;;;14.93;100.00
71907;BME280;59781;52.090;5.030;2023-05-17T07:28:07;102736.19;;;14.18;100.00
71907;BME280;59781;52.090;5.030;2023-05-17T07:30:32;102736.72;;;13.74;100.00
71907;BME280;59781;52.090;5.030;2023-05-17T07:32:58;102735.19;;;13.53;100.00
71907;BME280;59781;52.090;5.030;2023-05-17T07:35:24;102747.69;;;14.67;100.00
71907;BME280;59781;52.090;5.030;2023-05-17T07:37:50;102739.50;;;14.49;100.00
71907;BME280;59781;52.090;5.030;2023-05-17T07:40:16;102749.66;;;14.64;100.00
71907;BME280;59781;52.090;5.030;2023-05-17T07:42:41;102745.81;;;15.92;89.85
71907;BME280;59781;52.090;5.030;2023-05-17T07:45:07;102741.81;;;15.42;87.63
71907;BME280;59781;52.090;5.030;2023-05-17T07:47:33;102754.06;;;14.38;94.14
71907;BME280;59781;52.090;5.030;2023-05-17T07:49:59;102750.25;;;15.93;88.27
71907;BME280;59781;52.090;5.030;2023-05-17T07:52:25;102745.50;;;17.13;85.26
71907;BME280;59781;52.090;5.030;2023-05-17T07:54:51;102751.28;;;17.27;78.63
71907;BME280;59781;52.090;5.030;2023-05-17T07:57:16;102757.50;;;16.44;82.57
71907;BME280;59781;52.090;5.030;2023-05-17T07:59:42;102757.59;;;15.21;87.74
71907;BME280;59781;52.090;5.030;2023-05-17T08:02:08;102751.81;;;17.22;78.38
71907;BME280;59781;52.090;5.030;2023-05-17T08:04:34;102734.94;;;17.59;76.40
71907;BME280;59781;52.090;5.030;2023-05-17T08:07:01;102749.72;;;17.08;72.81
71907;BME280;59781;52.090;5.030;2023-05-17T08:09:27;102756.13;;;18.37;68.96
71907;BME280;59781;52.090;5.030;2023-05-17T08:11:52;102763.59;;;18.51;64.96
71907;BME280;59781;52.090;5.030;2023-05-17T08:14:21;102759.75;;;18.29;64.39
71907;BME280;59781;52.090;5.030;2023-05-17T08:16:47;102759.94;;;18.67;65.54
71907;BME280;59781;52.090;5.030;2023-05-17T08:19:13;102768.84;;;19.00;60.44
71907;BME280;59781;52.090;5.030;2023-05-17T08:21:41;102773.66;;;18.90;62.87
71907;BME280;59781;52.090;5.030;2023-05-17T08:24:07;102773.34;;;18.85;62.38
71907;BME280;59781;52.090;5.030;2023-05-17T08:26:33;102768.69;;;18.54;58.62
71907;BME280;59781;52.090;5.030;2023-05-17T08:29:01;102779.75;;;18.61;58.81
71907;BME280;59781;52.090;5.030;2023-05-17T08:31:28;102771.97;;;18.42;59.03
71907;BME280;59781;52.090;5.030;2023-05-17T08:33:53;102766.81;;;19.17;61.06
71907;BME280;59781;52.090;5.030;2023-05-17T08:36:19;102767.88;;;19.62;58.97
71907;BME280;59781;52.090;5.030;2023-05-17T08:38:45;102773.84;;;18.49;59.19
71907;BME280;59781;52.090;5.030;2023-05-17T08:41:11;102768.84;;;19.00;57.50
71907;BME280;59781;52.090;5.030;2023-05-17T08:43:38;102773.44;;;17.97;59.73
71907;BME280;59781;52.090;5.030;2023-05-17T08:46:04;102774.75;;;17.19;65.59
71907;BME280;59781;52.090;5.030;2023-05-17T08:48:33;102769.31;;;17.03;63.15
71907;BME280;59781;52.090;5.030;2023-05-17T08:51:01;102769.69;;;18.06;58.15
71907;BME280;59781;52.090;5.030;2023-05-17T08:53:27;102761.31;;;19.02;57.55
71907;BME280;59781;52.090;5.030;2023-05-17T08:55:57;102763.06;;;18.48;56.85
71907;BME280;59781;52.090;5.030;2023-05-17T08:58:33;102762.72;;;19.21;56.75
71907;BME280;59781;52.090;5.030;2023-05-17T09:01:05;102766.66;;;19.41;57.55
71907;BME280;59781;52.090;5.030;2023-05-17T09:03:34;102766.84;;;20.15;58.38
71907;BME280;59781;52.090;5.030;2023-05-17T09:06:05;102765.16;;;19.99;52.94
71907;BME280;59781;52.090;5.030;2023-05-17T09:08:32;102774.25;;;19.31;55.90
71907;BME280;59781;52.090;5.030;2023-05-17T09:10:58;102771.06;;;18.97;58.03
71907;BME280;59781;52.090;5.030;2023-05-17T09:13:24;102769.63;;;18.30;57.34
71907;BME280;59781;52.090;5.030;2023-05-17T09:15:51;102773.94;;;18.56;61.00
71907;BME280;59781;52.090;5.030;2023-05-17T09:18:18;102788.09;;;16.80;64.60
71907;BME280;59781;52.090;5.030;2023-05-17T09:20:53;102793.53;;;15.68;71.58
71907;BME280;59781;52.090;5.030;2023-05-17T09:23:20;102783.31;;;17.98;67.44
71907;BME280;59781;52.090;5.030;2023-05-17T09:25:47;102779.19;;;19.59;60.78
71907;BME280;59781;52.090;5.030;2023-05-17T09:28:13;102779.19;;;19.59;58.63
71907;BME280;59781;52.090;5.030;2023-05-17T09:30:39;102776.25;;;19.14;58.43
71907;BME280;59781;52.090;5.030;2023-05-17T09:33:07;102779.88;;;19.98;59.04
71907;BME280;59781;52.090;5.030;2023-05-17T09:35:35;102780.66;;;19.15;55.12
71907;BME280;59781;52.090;5.030;2023-05-17T09:38:12;102787.34;;;19.36;55.15
71907;BME280;59781;52.090;5.030;2023-05-17T09:40:45;102790.13;;;19.59;55.94
71907;BME280;59781;52.090;5.030;2023-05-17T09:43:13;102790.53;;;19.70;54.50
71907;BME280;59781;52.090;5.030;2023-05-17T09:45:40;102790.63;;;18.14;55.03
71907;BME280;59781;52.090;5.030;2023-05-17T09:48:14;102797.84;;;18.54;56.73
71907;BME280;59781;52.090;5.030;2023-05-17T09:50:45;102787.72;;;20.16;55.84
71907;BME280;59781;52.090;5.030;2023-05-17T09:53:28;102788.56;;;20.31;54.86
71907;BME280;59781;52.090;5.030;2023-05-17T09:56:03;102791.13;;;18.81;53.25
71907;BME280;59781;52.090;5.030;2023-05-17T09:58:35;102796.19;;;18.28;55.52
71907;BME280;59781;52.090;5.030;2023-05-17T10:01:04;102785.22;;;19.00;54.64
71907;BME280;59781;52.090;5.030;2023-05-17T10:03:33;102787.16;;;18.36;54.97
71907;BME280;59781;52.090;5.030;2023-05-17T10:06:07;102777.03;;;19.23;55.26
71907;BME280;59781;52.090;5.030;2023-05-17T10:08:37;102777.19;;;18.59;52.42
71907;BME280;59781;52.090;5.030;2023-05-17T10:11:09;102778.44;;;19.42;55.83
71907;BME280;59781;52.090;5.030;2023-05-17T10:13:51;102780.75;;;19.76;52.76
71907;BME280;59781;52.090;5.030;2023-05-17T10:16:33;102783.22;;;19.86;54.01
71907;BME280;59781;52.090;5.030;2023-05-17T10:19:00;102772.78;;;19.66;53.42
71907;BME280;59781;52.090;5.030;2023-05-17T10:21:29;102776.22;;;18.91;54.17
71907;BME280;59781;52.090;5.030;2023-05-17T10:23:58;102785.34;;;19.98;55.53
71907;BME280;59781;52.090;5.030;2023-05-17T10:26:26;102792.81;;;19.67;55.89
71907;BME280;59781;52.090;5.030;2023-05-17T10:29:00;102779.28;;;20.91;53.85
71907;BME280;59781;52.090;5.030;2023-05-17T10:31:30;102781.75;;;19.98;51.25
71907;BME280;59781;52.090;5.030;2023-05-17T10:34:04;102781.38;;;19.17;52.79
71907;BME280;59781;52.090;5.030;2023-05-17T10:36:33;102779.63;;;19.16;52.85
71907;BME280;59781;52.090;5.030;2023-05-17T10:38:59;102786.25;;;20.05;54.92
71907;BME280;59781;52.090;5.030;2023-05-17T10:41:31;102777.47;;;19.12;53.08
71907;BME280;59781;52.090;5.030;2023-05-17T10:44:01;102769.69;;;19.01;54.56
71907;BME280;59781;52.090;5.030;2023-05-17T10:46:29;102784.44;;;19.83;54.48
71907;BME280;59781;52.090;5.030;2023-05-17T10:48:57;102781.94;;;20.11;53.09
71907;BME280;59781;52.090;5.030;2023-05-17T10:51:36;102792.47;;;20.52;55.62
71907;BME280;59781;52.090;5.030;2023-05-17T10:54:02;102796.41;;;19.82;51.78
71907;BME280;59781;52.090;5.030;2023-05-17T10:56:52;102788.41;;;19.81;53.87
71907;BME280;59781;52.090;5.030;2023-05-17T10:59:22;102794.94;;;19.57;50.57
71907;BME280;59781;52.090;5.030;2023-05-17T11:02:00;102792.34;;;19.55;52.30
71907;BME280;59781;52.090;5.030;2023-05-17T11:09:42;102787.59;;;20.24;48.79
71907;BME280;59781;52.090;5.030;2023-05-17T11:12:11;102781.81;;;19.90;52.89
71907;BME280;59781;52.090;5.030;2023-05-17T11:17:12;102796.59;;;20.62;47.86
71907;BME280;59781;52.090;5.030;2023-05-17T11:22:24;102790.94;;;19.13;48.19
71907;BME280;59781;52.090;5.030;2023-05-17T11:24:52;102802.66;;;19.45;53.80
71907;BME280;59781;52.090;5.030;2023-05-17T11:27:22;102800.25;;;19.73;50.33
71907;BME280;59781;52.090;5.030;2023-05-17T11:29:57;102793.16;;;19.64;54.90
71907;BME280;59781;52.090;5.030;2023-05-17T11:32:31;102795.09;;;20.16;51.65
71907;BME280;59781;52.090;5.030;2023-05-17T11:35:00;102791.56;;;20.07;50.05
71907;BME280;59781;52.090;5.030;2023-05-17T11:37:27;102786.56;;;19.58;50.29
71907;BME280;59781;52.090;5.030;2023-05-17T11:40:05;102794.66;;;20.04;53.07
71907;BME280;59781;52.090;5.030;2023-05-17T11:42:35;102786.75;;;20.83;48.95
71907;BME280;59781;52.090;5.030;2023-05-17T11:45:03;102800.13;;;19.89;50.44
71907;BME280;59781;52.090;5.030;2023-05-17T11:47:29;102787.28;;;20.57;53.75
71907;BME280;59781;52.090;5.030;2023-05-17T11:50:00;102785.41;;;20.57;50.89
71907;BME280;59781;52.090;5.030;2023-05-17T11:52:28;102788.41;;;19.95;49.83
71907;BME280;59781;52.090;5.030;2023-05-17T11:54:57;102784.81;;;20.62;49.86
71907;BME280;59781;52.090;5.030;2023-05-17T11:57:31;102787.09;;;20.58;51.15
71907;BME280;59781;52.090;5.030;2023-05-17T12:00:00;102782.16;;;20.69;49.96
71907;BME280;59781;52.090;5.030;2023-05-17T12:02:38;102776.22;;;19.68;48.56
71907;BME280;59781;52.090;5.030;2023-05-17T12:05:03;102775.22;;;19.38;49.96
71907;BME280;59781;52.090;5.030;2023-05-17T12:07:29;102787.56;;;19.95;49.76
71907;BME280;59781;52.090;5.030;2023-05-17T12:09:55;102775.38;;;19.68;49.73
71907;BME280;59781;52.090;5.030;2023-05-17T12:12:21;102782.25;;;20.31;51.78
71907;BME280;59781;52.090;5.030;2023-05-17T12:14:47;102786.84;;;19.63;50.41
71907;BME280;59781;52.090;5.030;2023-05-17T12:17:37;102777.13;;;20.13;51.19
71907;BME280;59781;52.090;5.030;2023-05-17T12:20:09;102776.09;;;19.99;53.48
71907;BME280;59781;52.090;5.030;2023-05-17T12:22:54;102780.91;;;20.42;49.97
71907;BME280;59781;52.090;5.030;2023-05-17T12:25:23;102782.22;;;19.87;50.39
71907;BME280;59781;52.090;5.030;2023-05-17T12:28:13;102770.00;;;19.52;51.65
71907;BME280;59781;52.090;5.030;2023-05-17T12:30:51;102779.72;;;18.22;51.52
71907;BME280;59781;52.090;5.030;2023-05-17T12:33:18;102773.13;;;18.95;53.91
71907;BME280;59781;52.090;5.030;2023-05-17T12:35:45;102771.06;;;19.88;49.36
71907;BME280;59781;52.090;5.030;2023-05-17T12:38:11;102769.69;;;20.22;51.55
71907;BME280;59781;52.090;5.030;2023-05-17T12:40:39;102765.44;;;20.19;52.18
71907;BME280;59781;52.090;5.030;2023-05-17T12:43:05;102769.00;;;19.90;50.62
71907;BME280;59781;52.090;5.030;2023-05-17T12:45:32;102757.25;;;20.19;52.91
71907;BME280;59781;52.090;5.030;2023-05-17T12:47:59;102761.84;;;20.04;53.77
71907;BME280;59781;52.090;5.030;2023-05-17T12:50:31;102764.78;;;20.17;49.50
71907;BME280;59781;52.090;5.030;2023-05-17T12:52:57;102764.38;;;19.91;49.70
71907;BME280;59781;52.090;5.030;2023-05-17T12:55:23;102764.00;;;18.79;50.57
71907;BME280;59781;52.090;5.030;2023-05-17T12:57:53;102761.53;;;18.53;51.34
71907;BME280;59781;52.090;5.030;2023-05-17T13:00:20;102747.09;;;19.07;51.38
71907;BME280;59781;52.090;5.030;2023-05-17T13:02:46;102766.88;;;19.55;52.32
71907;BME280;59781;52.090;5.030;2023-05-17T13:05:17;102760.72;;;19.38;50.29
71907;BME280;59781;52.090;5.030;2023-05-17T13:07:46;102759.94;;;19.90;49.60
71907;BME280;59781;52.090;5.030;2023-05-17T13:10:25;102757.72;;;20.08;50.91